sensor_id;sensor_type;location;lat;lon;timestamp;P1;durP1;ratioP1;P2;durP2;ratioP2
66256;SDS011;53049;43.446;3.698;2023-04-16T00:01:53;1.00;;;0.90;;
66256;SDS011;53049;43.446;3.698;2023-04-16T00:04:19;1.08;;;0.85;;
66256;SDS011;53049;43.446;3.698;2023-04-16T00:06:45;1.80;;;0.88;;
66256;SDS011;53049;43.446;3.698;2023-04-16T00:09:11;1.70;;;0.82;;
66256;SDS011;53049;43.446;3.698;2023-04-16T00:11:36;1.05;;;0.85;;
66256;SDS011;53049;43.446;3.698;2023-04-16T00:14:02;1.15;;;0.80;;
66256;SDS011;53049;43.446;3.698;2023-04-16T00:16:28;1.00;;;1.00;;
66256;SDS011;53049;43.446;3.698;2023-04-16T00:18:54;1.10;;;1.00;;
66256;SDS011;53049;43.446;3.698;2023-04-16T00:21:20;1.13;;;0.95;;
66256;SDS011;53049;43.446;3.698;2023-04-16T00:23:45;1.75;;;0.80;;
66256;SDS011;53049;43.446;3.698;2023-04-16T00:26:11;1.02;;;0.90;;
66256;SDS011;53049;43.446;3.698;2023-04-16T00:28:36;1.08;;;0.90;;
66256;SDS011;53049;43.446;3.698;2023-04-16T00:31:02;1.13;;;0.95;;
66256;SDS011;53049;43.446;3.698;2023-04-16T00:33:28;1.13;;;1.00;;
66256;SDS011;53049;43.446;3.698;2023-04-16T00:35:54;1.38;;;0.95;;
66256;SDS011;53049;43.446;3.698;2023-04-16T00:38:20;1.95;;;0.85;;
66256;SDS011;53049;43.446;3.698;2023-04-16T00:40:45;0.82;;;0.82;;
66256;SDS011;53049;43.446;3.698;2023-04-16T00:43:16;1.75;;;1.02;;
66256;SDS011;53049;43.446;3.698;2023-04-16T00:45:47;1.17;;;0.90;;
66256;SDS011;53049;43.446;3.698;2023-04-16T00:48:12;2.05;;;1.10;;
66256;SDS011;53049;43.446;3.698;2023-04-16T00:50:38;0.93;;;0.80;;
66256;SDS011;53049;43.446;3.698;2023-04-16T00:53:04;1.17;;;1.05;;
66256;SDS011;53049;43.446;3.698;2023-04-16T00:55:29;1.08;;;1.08;;
66256;SDS011;53049;43.446;3.698;2023-04-16T00:57:55;1.33;;;1.00;;
66256;SDS011;53049;43.446;3.698;2023-04-16T01:00:21;1.42;;;0.90;;
66256;SDS011;53049;43.446;3.698;2023-04-16T01:02:46;0.98;;;0.90;;
66256;SDS011;53049;43.446;3.698;2023-04-16T01:05:12;1.05;;;0.90;;
66256;SDS011;53049;43.446;3.698;2023-04-16T01:07:38;2.53;;;0.93;;
66256;SDS011;53049;43.446;3.698;2023-04-16T01:10:04;1.38;;;0.93;;
66256;SDS011;53049;43.446;3.698;2023-04-16T01:12:30;1.95;;;1.10;;
66256;SDS011;53049;43.446;3.698;2023-04-16T01:14:56;1.13;;;1.00;;
66256;SDS011;53049;43.446;3.698;2023-04-16T01:17:22;2.50;;;1.13;;
66256;SDS011;53049;43.446;3.698;2023-04-16T01:19:47;0.98;;;0.88;;
66256;SDS011;53049;43.446;3.698;2023-04-16T01:22:13;2.92;;;1.02;;
66256;SDS011;53049;43.446;3.698;2023-04-16T01:24:39;1.55;;;0.98;;
66256;SDS011;53049;43.446;3.698;2023-04-16T01:27:04;0.90;;;0.90;;
66256;SDS011;53049;43.446;3.698;2023-04-16T01:29:30;0.90;;;0.90;;
66256;SDS011;53049;43.446;3.698;2023-04-16T01:31:55;1.25;;;1.00;;
66256;SDS011;53049;43.446;3.698;2023-04-16T01:34:21;1.10;;;0.98;;
66256;SDS011;53049;43.446;3.698;2023-04-16T01:36:47;1.23;;;0.88;;
66256;SDS011;53049;43.446;3.698;2023-04-16T01:39:12;1.17;;;0.95;;
66256;SDS011;53049;43.446;3.698;2023-04-16T01:41:40;0.95;;;0.90;;
66256;SDS011;53049;43.446;3.698;2023-04-16T01:44:06;0.93;;;0.80;;
66256;SDS011;53049;43.446;3.698;2023-04-16T01:46:32;1.50;;;0.85;;
66256;SDS011;53049;43.446;3.698;2023-04-16T01:49:02;2.22;;;0.98;;
66256;SDS011;53049;43.446;3.698;2023-04-16T01:51:29;2.03;;;1.08;;
66256;SDS011;53049;43.446;3.698;2023-04-16T01:53:56;1.20;;;1.10;;
66256;SDS011;53049;43.446;3.698;2023-04-16T01:56:22;1.33;;;0.82;;
66256;SDS011;53049;43.446;3.698;2023-04-16T01:58:48;1.40;;;0.90;;
66256;SDS011;53049;43.446;3.698;2023-04-16T02:01:13;1.02;;;0.82;;
66256;SDS011;53049;43.446;3.698;2023-04-16T02:03:39;1.48;;;0.90;;
66256;SDS011;53049;43.446;3.698;2023-04-16T02:06:05;1.00;;;1.00;;
66256;SDS011;53049;43.446;3.698;2023-04-16T02:08:31;0.98;;;0.90;;
66256;SDS011;53049;43.446;3.698;2023-04-16T02:10:56;1.85;;;1.13;;
66256;SDS011;53049;43.446;3.698;2023-04-16T02:13:23;2.60;;;1.02;;
66256;SDS011;53049;43.446;3.698;2023-04-16T02:15:50;0.93;;;0.93;;
66256;SDS011;53049;43.446;3.698;2023-04-16T02:18:16;2.17;;;0.82;;
66256;SDS011;53049;43.446;3.698;2023-04-16T02:20:43;2.55;;;1.73;;
66256;SDS011;53049;43.446;3.698;2023-04-16T02:23:10;4.43;;;1.02;;
66256;SDS011;53049;43.446;3.698;2023-04-16T02:25:42;1.88;;;0.93;;
66256;SDS011;53049;43.446;3.698;2023-04-16T02:28:10;0.80;;;0.80;;
66256;SDS011;53049;43.446;3.698;2023-04-16T02:30:38;2.08;;;0.93;;
66256;SDS011;53049;43.446;3.698;2023-04-16T02:33:04;0.90;;;0.90;;
66256;SDS011;53049;43.446;3.698;2023-04-16T02:35:34;0.95;;;0.90;;
66256;SDS011;53049;43.446;3.698;2023-04-16T02:38:01;2.28;;;1.10;;
66256;SDS011;53049;43.446;3.698;2023-04-16T02:40:28;2.92;;;1.10;;
66256;SDS011;53049;43.446;3.698;2023-04-16T02:42:54;1.77;;;1.20;;
66256;SDS011;53049;43.446;3.698;2023-04-16T02:45:19;1.20;;;1.10;;
66256;SDS011;53049;43.446;3.698;2023-04-16T02:47:46;1.40;;;0.90;;
66256;SDS011;53049;43.446;3.698;2023-04-16T02:50:12;0.90;;;0.90;;
66256;SDS011;53049;43.446;3.698;2023-04-16T02:52:38;1.63;;;1.05;;
66256;SDS011;53049;43.446;3.698;2023-04-16T02:55:04;1.10;;;1.02;;
66256;SDS011;53049;43.446;3.698;2023-04-16T02:57:31;1.25;;;0.90;;
66256;SDS011;53049;43.446;3.698;2023-04-16T02:59:57;1.25;;;1.15;;
66256;SDS011;53049;43.446;3.698;2023-04-16T03:02:22;2.88;;;1.70;;
66256;SDS011;53049;43.446;3.698;2023-04-16T03:04:48;1.45;;;1.10;;
66256;SDS011;53049;43.446;3.698;2023-04-16T03:07:14;1.67;;;1.27;;
66256;SDS011;53049;43.446;3.698;2023-04-16T03:09:40;2.15;;;1.10;;
66256;SDS011;53049;43.446;3.698;2023-04-16T03:12:05;1.67;;;1.08;;
66256;SDS011;53049;43.446;3.698;2023-04-16T03:14:31;2.03;;;1.10;;
66256;SDS011;53049;43.446;3.698;2023-04-16T03:16:57;1.80;;;1.10;;
66256;SDS011;53049;43.446;3.698;2023-04-16T03:19:22;1.40;;;1.20;;
66256;SDS011;53049;43.446;3.698;2023-04-16T03:21:48;1.35;;;1.25;;
66256;SDS011;53049;43.446;3.698;2023-04-16T03:24:14;1.23;;;0.90;;
66256;SDS011;53049;43.446;3.698;2023-04-16T03:26:39;2.17;;;1.42;;
66256;SDS011;53049;43.446;3.698;2023-04-16T03:29:05;1.20;;;1.10;;
66256;SDS011;53049;43.446;3.698;2023-04-16T03:31:31;1.63;;;1.20;;
66256;SDS011;53049;43.446;3.698;2023-04-16T03:33:57;1.13;;;1.02;;
66256;SDS011;53049;43.446;3.698;2023-04-16T03:36:23;1.33;;;1.00;;
66256;SDS011;53049;43.446;3.698;2023-04-16T03:38:49;1.13;;;1.02;;
66256;SDS011;53049;43.446;3.698;2023-04-16T03:41:15;3.97;;;1.25;;
66256;SDS011;53049;43.446;3.698;2023-04-16T03:43:40;1.55;;;1.25;;
66256;SDS011;53049;43.446;3.698;2023-04-16T03:46:06;1.73;;;1.23;;
66256;SDS011;53049;43.446;3.698;2023-04-16T03:48:32;2.15;;;1.10;;
66256;SDS011;53049;43.446;3.698;2023-04-16T03:50:57;2.30;;;1.20;;
66256;SDS011;53049;43.446;3.698;2023-04-16T03:53:23;1.40;;;1.10;;
66256;SDS011;53049;43.446;3.698;2023-04-16T03:55:49;1.92;;;1.42;;
66256;SDS011;53049;43.446;3.698;2023-04-16T03:58:15;2.30;;;1.02;;
66256;SDS011;53049;43.446;3.698;2023-04-16T04:00:41;3.15;;;1.42;;
66256;SDS011;53049;43.446;3.698;2023-04-16T04:03:07;2.58;;;1.13;;
66256;SDS011;53049;43.446;3.698;2023-04-16T04:05:38;1.45;;;1.10;;
66256;SDS011;53049;43.446;3.698;2023-04-16T04:08:04;1.75;;;1.40;;
66256;SDS011;53049;43.446;3.698;2023-04-16T04:10:31;1.30;;;1.20;;
66256;SDS011;53049;43.446;3.698;2023-04-16T04:12:57;2.05;;;1.30;;
66256;SDS011;53049;43.446;3.698;2023-04-16T04:15:23;1.33;;;1.20;;
66256;SDS011;53049;43.446;3.698;2023-04-16T04:17:49;2.80;;;1.30;;
66256;SDS011;53049;43.446;3.698;2023-04-16T04:20:15;2.08;;;1.20;;
66256;SDS011;53049;43.446;3.698;2023-04-16T04:22:41;1.98;;;1.40;;
66256;SDS011;53049;43.446;3.698;2023-04-16T04:25:07;2.97;;;1.30;;
66256;SDS011;53049;43.446;3.698;2023-04-16T04:27:34;1.63;;;1.20;;
66256;SDS011;53049;43.446;3.698;2023-04-16T04:30:00;3.13;;;1.40;;
66256;SDS011;53049;43.446;3.698;2023-04-16T04:32:26;2.80;;;1.45;;
66256;SDS011;53049;43.446;3.698;2023-04-16T04:34:51;2.65;;;1.40;;
66256;SDS011;53049;43.446;3.698;2023-04-16T04:37:17;2.33;;;1.40;;
66256;SDS011;53049;43.446;3.698;2023-04-16T04:39:43;1.50;;;1.20;;
66256;SDS011;53049;43.446;3.698;2023-04-16T04:42:08;2.30;;;1.33;;
66256;SDS011;53049;43.446;3.698;2023-04-16T04:44:34;2.47;;;1.50;;
66256;SDS011;53049;43.446;3.698;2023-04-16T04:47:00;3.72;;;1.42;;
66256;SDS011;53049;43.446;3.698;2023-04-16T04:49:25;5.00;;;1.40;;
66256;SDS011;53049;43.446;3.698;2023-04-16T04:51:51;2.67;;;1.63;;
66256;SDS011;53049;43.446;3.698;2023-04-16T04:54:17;4.63;;;1.58;;
66256;SDS011;53049;43.446;3.698;2023-04-16T04:56:42;3.45;;;1.30;;
66256;SDS011;53049;43.446;3.698;2023-04-16T04:59:11;3.50;;;1.50;;
66256;SDS011;53049;43.446;3.698;2023-04-16T05:01:37;2.25;;;1.60;;
66256;SDS011;53049;43.446;3.698;2023-04-16T05:04:03;2.17;;;1.63;;
66256;SDS011;53049;43.446;3.698;2023-04-16T05:06:29;1.98;;;1.38;;
66256;SDS011;53049;43.446;3.698;2023-04-16T05:08:55;2.50;;;1.42;;
66256;SDS011;53049;43.446;3.698;2023-04-16T05:11:20;2.05;;;1.40;;
66256;SDS011;53049;43.446;3.698;2023-04-16T05:13:46;4.47;;;1.85;;
66256;SDS011;53049;43.446;3.698;2023-04-16T05:16:12;2.60;;;1.50;;
66256;SDS011;53049;43.446;3.698;2023-04-16T05:18:38;2.22;;;1.50;;
66256;SDS011;53049;43.446;3.698;2023-04-16T05:21:03;3.00;;;1.60;;
66256;SDS011;53049;43.446;3.698;2023-04-16T05:23:29;1.98;;;1.50;;
66256;SDS011;53049;43.446;3.698;2023-04-16T05:25:55;1.90;;;1.58;;
66256;SDS011;53049;43.446;3.698;2023-04-16T05:28:21;2.58;;;1.63;;
66256;SDS011;53049;43.446;3.698;2023-04-16T05:30:46;3.13;;;1.80;;
66256;SDS011;53049;43.446;3.698;2023-04-16T05:33:12;3.83;;;1.73;;
66256;SDS011;53049;43.446;3.698;2023-04-16T05:35:37;2.53;;;1.67;;
66256;SDS011;53049;43.446;3.698;2023-04-16T05:38:03;3.22;;;1.90;;
66256;SDS011;53049;43.446;3.698;2023-04-16T05:40:29;3.03;;;1.88;;
66256;SDS011;53049;43.446;3.698;2023-04-16T05:42:55;3.35;;;1.80;;
66256;SDS011;53049;43.446;3.698;2023-04-16T05:45:20;1.80;;;1.55;;
66256;SDS011;53049;43.446;3.698;2023-04-16T05:47:46;2.53;;;1.70;;
66256;SDS011;53049;43.446;3.698;2023-04-16T05:50:12;3.05;;;1.80;;
66256;SDS011;53049;43.446;3.698;2023-04-16T05:52:37;2.92;;;1.70;;
66256;SDS011;53049;43.446;3.698;2023-04-16T05:55:03;2.60;;;1.70;;
66256;SDS011;53049;43.446;3.698;2023-04-16T05:57:29;3.33;;;1.77;;
66256;SDS011;53049;43.446;3.698;2023-04-16T05:59:55;3.63;;;2.00;;
66256;SDS011;53049;43.446;3.698;2023-04-16T06:02:21;3.70;;;2.10;;
66256;SDS011;53049;43.446;3.698;2023-04-16T06:04:46;3.45;;;1.80;;
66256;SDS011;53049;43.446;3.698;2023-04-16T06:07:13;4.78;;;2.40;;
66256;SDS011;53049;43.446;3.698;2023-04-16T06:09:39;3.13;;;1.85;;
66256;SDS011;53049;43.446;3.698;2023-04-16T06:12:05;3.35;;;2.00;;
66256;SDS011;53049;43.446;3.698;2023-04-16T06:14:30;6.05;;;2.10;;
66256;SDS011;53049;43.446;3.698;2023-04-16T06:16:56;2.67;;;1.90;;
66256;SDS011;53049;43.446;3.698;2023-04-16T06:19:22;2.30;;;1.95;;
66256;SDS011;53049;43.446;3.698;2023-04-16T06:21:47;2.83;;;1.98;;
66256;SDS011;53049;43.446;3.698;2023-04-16T06:24:13;3.92;;;2.05;;
66256;SDS011;53049;43.446;3.698;2023-04-16T06:26:39;4.28;;;2.22;;
66256;SDS011;53049;43.446;3.698;2023-04-16T06:29:04;5.22;;;2.45;;
66256;SDS011;53049;43.446;3.698;2023-04-16T06:31:30;3.65;;;2.22;;
66256;SDS011;53049;43.446;3.698;2023-04-16T06:33:56;4.55;;;2.30;;
66256;SDS011;53049;43.446;3.698;2023-04-16T06:36:21;3.83;;;2.47;;
66256;SDS011;53049;43.446;3.698;2023-04-16T06:38:47;4.05;;;2.30;;
66256;SDS011;53049;43.446;3.698;2023-04-16T06:41:13;3.80;;;2.10;;
66256;SDS011;53049;43.446;3.698;2023-04-16T06:43:39;5.03;;;2.45;;
66256;SDS011;53049;43.446;3.698;2023-04-16T06:46:04;3.40;;;2.00;;
66256;SDS011;53049;43.446;3.698;2023-04-16T06:48:30;3.05;;;2.05;;
66256;SDS011;53049;43.446;3.698;2023-04-16T06:50:57;3.90;;;2.30;;
66256;SDS011;53049;43.446;3.698;2023-04-16T06:53:23;4.95;;;2.35;;
66256;SDS011;53049;43.446;3.698;2023-04-16T06:55:48;6.28;;;2.63;;
66256;SDS011;53049;43.446;3.698;2023-04-16T06:58:14;3.53;;;2.25;;
66256;SDS011;53049;43.446;3.698;2023-04-16T07:00:40;5.00;;;2.80;;
66256;SDS011;53049;43.446;3.698;2023-04-16T07:03:05;3.72;;;2.45;;
66256;SDS011;53049;43.446;3.698;2023-04-16T07:05:31;7.35;;;2.72;;
66256;SDS011;53049;43.446;3.698;2023-04-16T07:07:57;6.43;;;2.65;;
66256;SDS011;53049;43.446;3.698;2023-04-16T07:10:23;6.55;;;2.80;;
66256;SDS011;53049;43.446;3.698;2023-04-16T07:12:49;6.20;;;2.70;;
66256;SDS011;53049;43.446;3.698;2023-04-16T07:15:15;4.93;;;2.72;;
66256;SDS011;53049;43.446;3.698;2023-04-16T07:17:41;5.18;;;2.70;;
66256;SDS011;53049;43.446;3.698;2023-04-16T07:20:06;6.63;;;2.53;;
66256;SDS011;53049;43.446;3.698;2023-04-16T07:22:32;4.40;;;2.47;;
66256;SDS011;53049;43.446;3.698;2023-04-16T07:24:58;5.68;;;2.53;;
66256;SDS011;53049;43.446;3.698;2023-04-16T07:27:24;5.97;;;2.63;;
66256;SDS011;53049;43.446;3.698;2023-04-16T07:29:49;4.75;;;2.90;;
66256;SDS011;53049;43.446;3.698;2023-04-16T07:32:15;4.22;;;2.50;;
66256;SDS011;53049;43.446;3.698;2023-04-16T07:34:41;3.80;;;2.40;;
66256;SDS011;53049;43.446;3.698;2023-04-16T07:37:07;5.43;;;2.45;;
66256;SDS011;53049;43.446;3.698;2023-04-16T07:39:33;4.20;;;2.80;;
66256;SDS011;53049;43.446;3.698;2023-04-16T07:41:58;5.15;;;2.50;;
66256;SDS011;53049;43.446;3.698;2023-04-16T07:44:24;5.40;;;2.60;;
66256;SDS011;53049;43.446;3.698;2023-04-16T07:46:50;6.82;;;3.15;;
66256;SDS011;53049;43.446;3.698;2023-04-16T07:49:16;4.55;;;2.45;;
66256;SDS011;53049;43.446;3.698;2023-04-16T07:51:41;3.55;;;2.42;;
66256;SDS011;53049;43.446;3.698;2023-04-16T07:54:07;3.72;;;2.60;;
66256;SDS011;53049;43.446;3.698;2023-04-16T07:56:34;4.55;;;2.47;;
66256;SDS011;53049;43.446;3.698;2023-04-16T07:59:00;4.88;;;2.47;;
66256;SDS011;53049;43.446;3.698;2023-04-16T08:01:25;3.30;;;2.35;;
66256;SDS011;53049;43.446;3.698;2023-04-16T08:03:51;5.38;;;2.33;;
66256;SDS011;53049;43.446;3.698;2023-04-16T08:06:16;5.07;;;2.63;;
66256;SDS011;53049;43.446;3.698;2023-04-16T08:08:42;3.17;;;2.60;;
66256;SDS011;53049;43.446;3.698;2023-04-16T08:11:08;5.07;;;2.40;;
66256;SDS011;53049;43.446;3.698;2023-04-16T08:13:33;5.47;;;2.33;;
66256;SDS011;53049;43.446;3.698;2023-04-16T08:15:59;4.70;;;2.45;;
66256;SDS011;53049;43.446;3.698;2023-04-16T08:18:25;4.10;;;2.65;;
66256;SDS011;53049;43.446;3.698;2023-04-16T08:20:51;3.75;;;2.45;;
66256;SDS011;53049;43.446;3.698;2023-04-16T08:23:17;3.17;;;2.30;;
66256;SDS011;53049;43.446;3.698;2023-04-16T08:25:42;5.47;;;2.60;;
66256;SDS011;53049;43.446;3.698;2023-04-16T08:28:08;3.63;;;1.92;;
66256;SDS011;53049;43.446;3.698;2023-04-16T08:30:33;4.53;;;2.40;;
66256;SDS011;53049;43.446;3.698;2023-04-16T08:32:59;3.47;;;2.10;;
66256;SDS011;53049;43.446;3.698;2023-04-16T08:35:25;3.20;;;2.30;;
66256;SDS011;53049;43.446;3.698;2023-04-16T08:37:51;5.03;;;2.55;;
66256;SDS011;53049;43.446;3.698;2023-04-16T08:40:17;3.38;;;2.30;;
66256;SDS011;53049;43.446;3.698;2023-04-16T08:42:52;4.40;;;2.35;;
66256;SDS011;53049;43.446;3.698;2023-04-16T08:45:19;5.35;;;2.17;;
66256;SDS011;53049;43.446;3.698;2023-04-16T08:47:46;4.90;;;2.50;;
66256;SDS011;53049;43.446;3.698;2023-04-16T08:50:13;3.00;;;2.05;;
66256;SDS011;53049;43.446;3.698;2023-04-16T08:52:52;4.40;;;2.15;;
66256;SDS011;53049;43.446;3.698;2023-04-16T08:55:29;2.83;;;1.70;;
66256;SDS011;53049;43.446;3.698;2023-04-16T08:58:02;3.95;;;2.00;;
66256;SDS011;53049;43.446;3.698;2023-04-16T09:00:39;3.75;;;2.10;;
66256;SDS011;53049;43.446;3.698;2023-04-16T09:03:05;8.05;;;1.90;;
66256;SDS011;53049;43.446;3.698;2023-04-16T09:05:32;3.45;;;2.10;;
66256;SDS011;53049;43.446;3.698;2023-04-16T09:07:58;3.10;;;2.17;;
66256;SDS011;53049;43.446;3.698;2023-04-16T09:10:24;4.38;;;2.00;;
66256;SDS011;53049;43.446;3.698;2023-04-16T09:12:51;2.63;;;1.90;;
66256;SDS011;53049;43.446;3.698;2023-04-16T09:15:19;3.95;;;2.00;;
66256;SDS011;53049;43.446;3.698;2023-04-16T09:17:45;3.55;;;1.80;;
66256;SDS011;53049;43.446;3.698;2023-04-16T09:20:11;2.90;;;1.88;;
66256;SDS011;53049;43.446;3.698;2023-04-16T09:22:37;3.50;;;1.90;;
66256;SDS011;53049;43.446;3.698;2023-04-16T09:25:04;3.03;;;2.08;;
66256;SDS011;53049;43.446;3.698;2023-04-16T09:27:30;2.85;;;1.80;;
66256;SDS011;53049;43.446;3.698;2023-04-16T09:29:56;2.25;;;1.75;;
66256;SDS011;53049;43.446;3.698;2023-04-16T09:32:25;6.40;;;1.90;;
66256;SDS011;53049;43.446;3.698;2023-04-16T09:34:56;2.72;;;1.70;;
66256;SDS011;53049;43.446;3.698;2023-04-16T09:37:24;5.22;;;1.88;;
66256;SDS011;53049;43.446;3.698;2023-04-16T09:40:00;3.50;;;1.80;;
66256;SDS011;53049;43.446;3.698;2023-04-16T09:42:36;2.80;;;1.80;;
66256;SDS011;53049;43.446;3.698;2023-04-16T09:45:02;4.88;;;2.70;;
66256;SDS011;53049;43.446;3.698;2023-04-16T09:47:38;3.65;;;1.80;;
66256;SDS011;53049;43.446;3.698;2023-04-16T09:50:09;3.05;;;1.83;;
66256;SDS011;53049;43.446;3.698;2023-04-16T09:52:42;1.58;;;1.48;;
66256;SDS011;53049;43.446;3.698;2023-04-16T09:55:09;2.22;;;1.65;;
66256;SDS011;53049;43.446;3.698;2023-04-16T09:57:36;2.17;;;1.67;;
66256;SDS011;53049;43.446;3.698;2023-04-16T10:00:03;2.65;;;1.60;;
66256;SDS011;53049;43.446;3.698;2023-04-16T10:02:31;2.30;;;1.60;;
66256;SDS011;53049;43.446;3.698;2023-04-16T10:04:59;1.50;;;1.40;;
66256;SDS011;53049;43.446;3.698;2023-04-16T10:07:26;2.50;;;1.60;;
66256;SDS011;53049;43.446;3.698;2023-04-16T10:09:53;2.58;;;1.70;;
66256;SDS011;53049;43.446;3.698;2023-04-16T10:12:20;2.70;;;1.80;;
66256;SDS011;53049;43.446;3.698;2023-04-16T10:14:46;2.78;;;1.60;;
66256;SDS011;53049;43.446;3.698;2023-04-16T10:17:11;2.97;;;1.50;;
66256;SDS011;53049;43.446;3.698;2023-04-16T10:19:37;3.05;;;1.60;;
66256;SDS011;53049;43.446;3.698;2023-04-16T10:22:03;3.80;;;1.95;;
66256;SDS011;53049;43.446;3.698;2023-04-16T10:24:30;3.45;;;1.70;;
66256;SDS011;53049;43.446;3.698;2023-04-16T10:26:57;4.15;;;1.70;;
66256;SDS011;53049;43.446;3.698;2023-04-16T10:29:24;2.90;;;1.70;;
66256;SDS011;53049;43.446;3.698;2023-04-16T10:31:54;4.60;;;1.92;;
66256;SDS011;53049;43.446;3.698;2023-04-16T10:34:21;3.35;;;1.60;;
66256;SDS011;53049;43.446;3.698;2023-04-16T10:36:48;2.85;;;1.40;;
66256;SDS011;53049;43.446;3.698;2023-04-16T10:39:17;1.73;;;1.42;;
66256;SDS011;53049;43.446;3.698;2023-04-16T10:41:46;3.00;;;1.60;;
66256;SDS011;53049;43.446;3.698;2023-04-16T10:44:12;1.48;;;1.38;;
66256;SDS011;53049;43.446;3.698;2023-04-16T10:46:42;2.50;;;1.60;;
66256;SDS011;53049;43.446;3.698;2023-04-16T10:49:16;2.92;;;1.60;;
66256;SDS011;53049;43.446;3.698;2023-04-16T10:52:28;2.30;;;1.52;;
66256;SDS011;53049;43.446;3.698;2023-04-16T10:54:34;2.08;;;1.33;;
66256;SDS011;53049;43.446;3.698;2023-04-16T10:57:05;3.78;;;1.75;;
66256;SDS011;53049;43.446;3.698;2023-04-16T10:59:33;1.92;;;1.50;;
66256;SDS011;53049;43.446;3.698;2023-04-16T11:02:00;2.45;;;1.38;;
66256;SDS011;53049;43.446;3.698;2023-04-16T11:04:53;3.47;;;1.50;;
66256;SDS011;53049;43.446;3.698;2023-04-16T11:07:31;2.20;;;1.65;;
66256;SDS011;53049;43.446;3.698;2023-04-16T11:09:58;4.07;;;1.70;;
66256;SDS011;53049;43.446;3.698;2023-04-16T11:14:57;2.45;;;1.58;;
66256;SDS011;53049;43.446;3.698;2023-04-16T11:17:27;2.55;;;1.50;;
66256;SDS011;53049;43.446;3.698;2023-04-16T11:19:55;3.67;;;1.40;;
66256;SDS011;53049;43.446;3.698;2023-04-16T11:22:21;2.33;;;1.48;;
66256;SDS011;53049;43.446;3.698;2023-04-16T11:24:52;3.17;;;1.50;;
66256;SDS011;53049;43.446;3.698;2023-04-16T11:27:19;2.10;;;1.40;;
66256;SDS011;53049;43.446;3.698;2023-04-16T11:29:45;2.28;;;1.40;;
66256;SDS011;53049;43.446;3.698;2023-04-16T11:32:20;2.45;;;1.80;;
66256;SDS011;53049;43.446;3.698;2023-04-16T11:34:46;1.88;;;1.40;;
66256;SDS011;53049;43.446;3.698;2023-04-16T11:37:12;2.58;;;1.60;;
66256;SDS011;53049;43.446;3.698;2023-04-16T11:39:48;4.18;;;1.58;;
66256;SDS011;53049;43.446;3.698;2023-04-16T11:42:21;2.30;;;1.50;;
66256;SDS011;53049;43.446;3.698;2023-04-16T11:44:53;3.00;;;1.58;;
66256;SDS011;53049;43.446;3.698;2023-04-16T11:47:23;1.52;;;1.30;;
66256;SDS011;53049;43.446;3.698;2023-04-16T11:49:50;2.42;;;1.52;;
66256;SDS011;53049;43.446;3.698;2023-04-16T11:52:29;1.40;;;1.30;;
66256;SDS011;53049;43.446;3.698;2023-04-16T11:54:57;1.77;;;1.40;;
66256;SDS011;53049;43.446;3.698;2023-04-16T11:57:27;1.70;;;1.48;;
66256;SDS011;53049;43.446;3.698;2023-04-16T11:59:54;2.47;;;1.40;;
66256;SDS011;53049;43.446;3.698;2023-04-16T12:02:36;1.50;;;1.40;;
66256;SDS011;53049;43.446;3.698;2023-04-16T12:05:04;3.67;;;1.30;;
66256;SDS011;53049;43.446;3.698;2023-04-16T12:07:55;1.65;;;1.38;;
66256;SDS011;53049;43.446;3.698;2023-04-16T12:10:21;1.50;;;1.40;;
66256;SDS011;53049;43.446;3.698;2023-04-16T12:12:47;1.88;;;1.30;;
66256;SDS011;53049;43.446;3.698;2023-04-16T12:15:12;1.65;;;1.35;;
66256;SDS011;53049;43.446;3.698;2023-04-16T12:17:38;2.08;;;1.50;;
66256;SDS011;53049;43.446;3.698;2023-04-16T12:20:10;2.42;;;1.35;;
66256;SDS011;53049;43.446;3.698;2023-04-16T12:22:40;3.05;;;1.60;;
66256;SDS011;53049;43.446;3.698;2023-04-16T12:25:10;2.97;;;1.40;;
66256;SDS011;53049;43.446;3.698;2023-04-16T12:30:11;4.63;;;1.55;;
66256;SDS011;53049;43.446;3.698;2023-04-16T12:32:37;3.33;;;1.48;;
66256;SDS011;53049;43.446;3.698;2023-04-16T12:35:03;2.88;;;1.45;;
66256;SDS011;53049;43.446;3.698;2023-04-16T12:37:29;2.25;;;1.40;;
66256;SDS011;53049;43.446;3.698;2023-04-16T12:39:55;2.58;;;1.40;;
66256;SDS011;53049;43.446;3.698;2023-04-16T12:42:21;1.90;;;1.27;;
66256;SDS011;53049;43.446;3.698;2023-04-16T12:44:47;1.40;;;1.30;;
66256;SDS011;53049;43.446;3.698;2023-04-16T12:47:12;2.53;;;1.55;;
66256;SDS011;53049;43.446;3.698;2023-04-16T12:49:38;2.63;;;1.40;;
66256;SDS011;53049;43.446;3.698;2023-04-16T12:52:03;1.38;;;1.27;;
66256;SDS011;53049;43.446;3.698;2023-04-16T12:54:30;2.10;;;1.45;;
66256;SDS011;53049;43.446;3.698;2023-04-16T12:56:56;3.72;;;1.50;;
66256;SDS011;53049;43.446;3.698;2023-04-16T12:59:22;1.75;;;1.25;;
66256;SDS011;53049;43.446;3.698;2023-04-16T13:01:48;1.63;;;1.40;;
66256;SDS011;53049;43.446;3.698;2023-04-16T13:04:13;2.25;;;1.30;;
66256;SDS011;53049;43.446;3.698;2023-04-16T13:06:39;3.10;;;1.45;;
66256;SDS011;53049;43.446;3.698;2023-04-16T13:09:05;1.88;;;1.40;;
66256;SDS011;53049;43.446;3.698;2023-04-16T13:11:31;4.00;;;1.38;;
66256;SDS011;53049;43.446;3.698;2023-04-16T13:13:57;1.95;;;1.50;;
66256;SDS011;53049;43.446;3.698;2023-04-16T13:16:23;6.53;;;1.48;;
66256;SDS011;53049;43.446;3.698;2023-04-16T13:18:48;1.85;;;1.58;;
66256;SDS011;53049;43.446;3.698;2023-04-16T13:21:14;1.50;;;1.20;;
66256;SDS011;53049;43.446;3.698;2023-04-16T13:23:40;3.60;;;1.60;;
66256;SDS011;53049;43.446;3.698;2023-04-16T13:26:06;1.77;;;1.40;;
66256;SDS011;53049;43.446;3.698;2023-04-16T13:28:32;3.20;;;1.40;;
66256;SDS011;53049;43.446;3.698;2023-04-16T13:30:58;1.48;;;1.35;;
66256;SDS011;53049;43.446;3.698;2023-04-16T13:33:24;2.10;;;1.30;;
66256;SDS011;53049;43.446;3.698;2023-04-16T13:35:49;2.15;;;1.40;;
66256;SDS011;53049;43.446;3.698;2023-04-16T13:38:15;1.58;;;1.27;;
66256;SDS011;53049;43.446;3.698;2023-04-16T13:40:41;1.80;;;1.40;;
66256;SDS011;53049;43.446;3.698;2023-04-16T13:43:07;1.95;;;1.27;;
66256;SDS011;53049;43.446;3.698;2023-04-16T13:45:33;1.40;;;1.30;;
66256;SDS011;53049;43.446;3.698;2023-04-16T13:47:59;1.88;;;1.40;;
66256;SDS011;53049;43.446;3.698;2023-04-16T13:50:25;2.78;;;1.40;;
66256;SDS011;53049;43.446;3.698;2023-04-16T13:52:50;3.05;;;1.67;;
66256;SDS011;53049;43.446;3.698;2023-04-16T13:55:16;1.83;;;1.25;;
66256;SDS011;53049;43.446;3.698;2023-04-16T13:57:44;4.15;;;1.40;;
66256;SDS011;53049;43.446;3.698;2023-04-16T14:00:11;1.40;;;1.30;;
66256;SDS011;53049;43.446;3.698;2023-04-16T14:02:37;1.55;;;1.35;;
66256;SDS011;53049;43.446;3.698;2023-04-16T14:05:04;3.35;;;1.33;;
66256;SDS011;53049;43.446;3.698;2023-04-16T14:07:30;3.75;;;1.65;;
66256;SDS011;53049;43.446;3.698;2023-04-16T14:09:56;1.73;;;1.33;;
66256;SDS011;53049;43.446;3.698;2023-04-16T14:12:22;1.58;;;1.30;;
66256;SDS011;53049;43.446;3.698;2023-04-16T14:14:48;1.77;;;1.30;;
66256;SDS011;53049;43.446;3.698;2023-04-16T14:17:13;1.67;;;1.10;;
66256;SDS011;53049;43.446;3.698;2023-04-16T14:19:39;5.05;;;1.50;;
66256;SDS011;53049;43.446;3.698;2023-04-16T14:22:06;1.40;;;1.30;;
66256;SDS011;53049;43.446;3.698;2023-04-16T14:24:31;1.92;;;1.40;;
66256;SDS011;53049;43.446;3.698;2023-04-16T14:26:57;3.63;;;1.00;;
66256;SDS011;53049;43.446;3.698;2023-04-16T14:29:23;2.00;;;1.20;;
66256;SDS011;53049;43.446;3.698;2023-04-16T14:31:51;1.73;;;1.30;;
66256;SDS011;53049;43.446;3.698;2023-04-16T14:34:17;2.40;;;1.40;;
66256;SDS011;53049;43.446;3.698;2023-04-16T14:36:43;1.40;;;1.20;;
66256;SDS011;53049;43.446;3.698;2023-04-16T14:39:09;1.75;;;1.15;;
66256;SDS011;53049;43.446;3.698;2023-04-16T14:41:35;1.20;;;1.10;;
66256;SDS011;53049;43.446;3.698;2023-04-16T14:44:00;1.05;;;1.00;;
66256;SDS011;53049;43.446;3.698;2023-04-16T14:46:28;2.22;;;1.10;;
66256;SDS011;53049;43.446;3.698;2023-04-16T14:48:54;3.10;;;1.10;;
66256;SDS011;53049;43.446;3.698;2023-04-16T14:51:20;1.55;;;1.17;;